sensor_id;sensor_type;location;lat;lon;timestamp;pressure;altitude;pressure_sealevel;temperature;humidity
44140;BME280;29803;51.048;4.686;2022-08-19T00:00:45;101379.06;;;16.01;100.00
44140;BME280;29803;51.048;4.686;2022-08-19T00:03:16;101375.69;;;15.99;100.00
44140;BME280;29803;51.048;4.686;2022-08-19T00:05:46;101378.59;;;15.98;100.00
44140;BME280;29803;51.048;4.686;2022-08-19T00:08:17;101386.88;;;15.96;100.00
44140;BME280;29803;51.048;4.686;2022-08-19T00:10:47;101391.00;;;15.92;100.00
44140;BME280;29803;51.048;4.686;2022-08-19T00:13:18;101395.56;;;15.92;100.00
44140;BME280;29803;51.048;4.686;2022-08-19T00:15:48;101394.72;;;15.91;100.00
44140;BME280;29803;51.048;4.686;2022-08-19T00:18:19;101396.41;;;15.92;100.00
44140;BME280;29803;51.048;4.686;2022-08-19T00:20:49;101402.75;;;15.99;100.00
44140;BME280;29803;51.048;4.686;2022-08-19T00:23:20;101405.91;;;16.03;100.00
44140;BME280;29803;51.048;4.686;2022-08-19T00:25:50;101408.06;;;16.08;100.00
44140;BME280;29803;51.048;4.686;2022-08-19T00:28:22;101403.56;;;16.15;100.00
44140;BME280;29803;51.048;4.686;2022-08-19T00:30:52;101408.59;;;16.18;100.00
44140;BME280;29803;51.048;4.686;2022-08-19T00:33:23;101404.88;;;16.19;100.00
44140;BME280;29803;51.048;4.686;2022-08-19T00:35:55;101397.94;;;16.16;100.00
44140;BME280;29803;51.048;4.686;2022-08-19T00:38:26;101400.22;;;16.13;100.00
44140;BME280;29803;51.048;4.686;2022-08-19T00:40:56;101398.06;;;16.08;100.00
44140;BME280;29803;51.048;4.686;2022-08-19T00:43:27;101403.00;;;16.04;100.00
44140;BME280;29803;51.048;4.686;2022-08-19T00:45:58;101395.47;;;16.00;100.00
44140;BME280;29803;51.048;4.686;2022-08-19T00:48:28;101399.28;;;15.91;100.00
44140;BME280;29803;51.048;4.686;2022-08-19T00:50:59;101394.44;;;15.86;100.00
44140;BME280;29803;51.048;4.686;2022-08-19T00:53:31;101393.44;;;15.87;100.00
44140;BME280;29803;51.048;4.686;2022-08-19T00:56:04;101405.47;;;15.85;100.00
44140;BME280;29803;51.048;4.686;2022-08-19T00:58:36;101406.28;;;15.85;100.00
44140;BME280;29803;51.048;4.686;2022-08-19T01:01:07;101402.19;;;15.89;100.00
44140;BME280;29803;51.048;4.686;2022-08-19T01:03:37;101405.16;;;15.94;100.00
44140;BME280;29803;51.048;4.686;2022-08-19T01:06:08;101408.16;;;15.99;100.00
44140;BME280;29803;51.048;4.686;2022-08-19T01:08:45;101405.72;;;16.04;100.00
44140;BME280;29803;51.048;4.686;2022-08-19T01:11:16;101401.81;;;16.07;100.00
44140;BME280;29803;51.048;4.686;2022-08-19T01:13:48;101401.41;;;16.10;100.00
44140;BME280;29803;51.048;4.686;2022-08-19T01:16:22;101398.97;;;16.15;100.00
44140;BME280;29803;51.048;4.686;2022-08-19T01:18:54;101397.56;;;16.19;100.00
44140;BME280;29803;51.048;4.686;2022-08-19T01:21:49;101398.81;;;16.17;100.00
44140;BME280;29803;51.048;4.686;2022-08-19T01:24:39;101391.06;;;16.14;100.00
44140;BME280;29803;51.048;4.686;2022-08-19T01:27:18;101396.47;;;16.14;100.00
44140;BME280;29803;51.048;4.686;2022-08-19T01:30:04;101402.91;;;16.13;100.00
44140;BME280;29803;51.048;4.686;2022-08-19T01:32:35;101394.97;;;16.11;100.00
44140;BME280;29803;51.048;4.686;2022-08-19T01:35:07;101390.78;;;16.09;100.00
44140;BME280;29803;51.048;4.686;2022-08-19T01:37:52;101399.75;;;16.09;100.00
44140;BME280;29803;51.048;4.686;2022-08-19T01:40:26;101387.88;;;16.10;100.00
44140;BME280;29803;51.048;4.686;2022-08-19T01:42:57;101391.81;;;16.08;100.00
44140;BME280;29803;51.048;4.686;2022-08-19T01:45:32;101383.72;;;16.08;100.00
44140;BME280;29803;51.048;4.686;2022-08-19T01:48:03;101380.16;;;16.07;100.00
44140;BME280;29803;51.048;4.686;2022-08-19T01:50:35;101384.75;;;16.07;100.00
44140;BME280;29803;51.048;4.686;2022-08-19T01:53:09;101395.72;;;16.05;100.00
44140;BME280;29803;51.048;4.686;2022-08-19T01:55:41;101404.88;;;16.04;100.00
44140;BME280;29803;51.048;4.686;2022-08-19T01:58:18;101410.50;;;16.02;100.00
44140;BME280;29803;51.048;4.686;2022-08-19T02:00:51;101405.66;;;15.98;100.00
44140;BME280;29803;51.048;4.686;2022-08-19T02:03:22;101404.34;;;15.94;100.00
44140;BME280;29803;51.048;4.686;2022-08-19T02:05:55;101414.31;;;15.93;100.00
44140;BME280;29803;51.048;4.686;2022-08-19T02:08:27;101411.81;;;15.92;100.00
44140;BME280;29803;51.048;4.686;2022-08-19T02:10:58;101411.16;;;15.90;100.00
44140;BME280;29803;51.048;4.686;2022-08-19T02:13:29;101410.66;;;15.86;100.00
44140;BME280;29803;51.048;4.686;2022-08-19T02:16:00;101409.38;;;15.82;100.00
44140;BME280;29803;51.048;4.686;2022-08-19T02:18:30;101407.88;;;15.79;100.00
44140;BME280;29803;51.048;4.686;2022-08-19T02:21:01;101408.28;;;15.76;100.00
44140;BME280;29803;51.048;4.686;2022-08-19T02:23:32;101405.72;;;15.75;100.00
44140;BME280;29803;51.048;4.686;2022-08-19T02:26:02;101409.66;;;15.72;100.00
44140;BME280;29803;51.048;4.686;2022-08-19T02:28:33;101405.66;;;15.68;100.00
44140;BME280;29803;51.048;4.686;2022-08-19T02:31:10;101395.88;;;15.67;100.00
44140;BME280;29803;51.048;4.686;2022-08-19T02:33:41;101398.72;;;15.66;100.00
44140;BME280;29803;51.048;4.686;2022-08-19T02:36:13;101401.63;;;15.64;100.00
44140;BME280;29803;51.048;4.686;2022-08-19T02:38:45;101412.78;;;15.61;100.00
44140;BME280;29803;51.048;4.686;2022-08-19T02:41:18;101413.16;;;15.58;100.00
44140;BME280;29803;51.048;4.686;2022-08-19T02:43:49;101409.16;;;15.54;100.00
44140;BME280;29803;51.048;4.686;2022-08-19T02:46:22;101404.97;;;15.51;100.00
44140;BME280;29803;51.048;4.686;2022-08-19T02:48:57;101398.69;;;15.51;100.00
44140;BME280;29803;51.048;4.686;2022-08-19T02:51:45;101398.06;;;15.49;100.00
44140;BME280;29803;51.048;4.686;2022-08-19T02:54:16;101405.31;;;15.48;100.00
44140;BME280;29803;51.048;4.686;2022-08-19T02:56:47;101405.69;;;15.45;100.00
44140;BME280;29803;51.048;4.686;2022-08-19T02:59:17;101399.81;;;15.42;100.00
44140;BME280;29803;51.048;4.686;2022-08-19T03:01:47;101398.69;;;15.36;100.00
44140;BME280;29803;51.048;4.686;2022-08-19T03:04:18;101393.16;;;15.29;100.00
44140;BME280;29803;51.048;4.686;2022-08-19T03:06:49;101398.28;;;15.24;100.00
44140;BME280;29803;51.048;4.686;2022-08-19T03:09:20;101400.69;;;15.19;100.00
44140;BME280;29803;51.048;4.686;2022-08-19T03:11:51;101411.22;;;15.14;100.00
44140;BME280;29803;51.048;4.686;2022-08-19T03:14:21;101412.78;;;15.09;100.00
44140;BME280;29803;51.048;4.686;2022-08-19T03:16:53;101404.59;;;15.02;100.00
44140;BME280;29803;51.048;4.686;2022-08-19T03:19:24;101413.22;;;14.97;100.00
44140;BME280;29803;51.048;4.686;2022-08-19T03:21:54;101410.03;;;14.94;100.00
44140;BME280;29803;51.048;4.686;2022-08-19T03:24:25;101409.41;;;14.92;100.00
44140;BME280;29803;51.048;4.686;2022-08-19T03:26:56;101399.13;;;14.87;100.00
44140;BME280;29803;51.048;4.686;2022-08-19T03:29:29;101402.38;;;14.83;100.00
44140;BME280;29803;51.048;4.686;2022-08-19T03:32:04;101400.03;;;14.80;100.00
44140;BME280;29803;51.048;4.686;2022-08-19T03:34:36;101414.34;;;14.80;100.00
44140;BME280;29803;51.048;4.686;2022-08-19T03:37:09;101405.06;;;14.83;100.00
44140;BME280;29803;51.048;4.686;2022-08-19T03:39:42;101401.00;;;14.87;100.00
44140;BME280;29803;51.048;4.686;2022-08-19T03:42:12;101397.47;;;14.86;100.00
44140;BME280;29803;51.048;4.686;2022-08-19T03:44:43;101391.56;;;14.83;100.00
44140;BME280;29803;51.048;4.686;2022-08-19T03:47:15;101397.50;;;14.78;100.00
44140;BME280;29803;51.048;4.686;2022-08-19T03:49:46;101396.56;;;14.71;100.00
44140;BME280;29803;51.048;4.686;2022-08-19T03:52:17;101399.97;;;14.65;100.00
44140;BME280;29803;51.048;4.686;2022-08-19T03:54:47;101398.47;;;14.62;100.00
44140;BME280;29803;51.048;4.686;2022-08-19T03:57:18;101398.47;;;14.62;100.00
44140;BME280;29803;51.048;4.686;2022-08-19T03:59:48;101401.16;;;14.62;100.00
44140;BME280;29803;51.048;4.686;2022-08-19T04:02:19;101396.22;;;14.66;100.00
44140;BME280;29803;51.048;4.686;2022-08-19T04:04:53;101406.03;;;14.67;100.00
44140;BME280;29803;51.048;4.686;2022-08-19T04:07:23;101405.19;;;14.66;100.00
44140;BME280;29803;51.048;4.686;2022-08-19T04:09:55;101408.91;;;14.65;100.00
44140;BME280;29803;51.048;4.686;2022-08-19T04:12:25;101405.53;;;14.63;100.00
44140;BME280;29803;51.048;4.686;2022-08-19T04:14:56;101400.16;;;14.63;100.00
44140;BME280;29803;51.048;4.686;2022-08-19T04:17:26;101407.91;;;14.66;100.00
44140;BME280;29803;51.048;4.686;2022-08-19T04:19:57;101401.09;;;14.70;100.00
44140;BME280;29803;51.048;4.686;2022-08-19T04:22:27;101412.75;;;14.71;100.00
44140;BME280;29803;51.048;4.686;2022-08-19T04:24:58;101403.78;;;14.70;100.00
44140;BME280;29803;51.048;4.686;2022-08-19T04:27:28;101408.19;;;14.71;100.00
44140;BME280;29803;51.048;4.686;2022-08-19T04:29:59;101400.75;;;14.73;100.00
44140;BME280;29803;51.048;4.686;2022-08-19T04:32:29;101402.91;;;14.78;100.00
44140;BME280;29803;51.048;4.686;2022-08-19T04:35:02;101407.47;;;14.77;100.00
44140;BME280;29803;51.048;4.686;2022-08-19T04:37:32;101408.50;;;14.76;100.00
44140;BME280;29803;51.048;4.686;2022-08-19T04:40:06;101408.66;;;14.75;100.00
44140;BME280;29803;51.048;4.686;2022-08-19T04:42:55;101410.38;;;14.76;100.00
44140;BME280;29803;51.048;4.686;2022-08-19T04:45:26;101408.13;;;14.80;100.00
44140;BME280;29803;51.048;4.686;2022-08-19T04:47:57;101418.78;;;14.81;100.00
44140;BME280;29803;51.048;4.686;2022-08-19T04:50:27;101419.41;;;14.83;100.00
44140;BME280;29803;51.048;4.686;2022-08-19T04:52:58;101428.84;;;14.87;100.00
44140;BME280;29803;51.048;4.686;2022-08-19T04:55:28;101423.06;;;14.90;100.00
44140;BME280;29803;51.048;4.686;2022-08-19T04:57:59;101420.84;;;14.94;100.00
44140;BME280;29803;51.048;4.686;2022-08-19T05:00:29;101411.56;;;14.96;100.00
44140;BME280;29803;51.048;4.686;2022-08-19T05:03:01;101423.84;;;14.99;100.00
44140;BME280;29803;51.048;4.686;2022-08-19T05:05:32;101435.50;;;14.99;100.00
44140;BME280;29803;51.048;4.686;2022-08-19T05:08:04;101434.84;;;14.97;100.00
44140;BME280;29803;51.048;4.686;2022-08-19T05:10:36;101432.16;;;14.97;100.00
44140;BME280;29803;51.048;4.686;2022-08-19T05:13:07;101439.03;;;15.00;100.00
44140;BME280;29803;51.048;4.686;2022-08-19T05:15:39;101432.78;;;14.99;100.00
44140;BME280;29803;51.048;4.686;2022-08-19T05:18:10;101430.38;;;15.05;100.00
44140;BME280;29803;51.048;4.686;2022-08-19T05:20:59;101435.25;;;15.09;100.00
44140;BME280;29803;51.048;4.686;2022-08-19T05:23:48;101438.63;;;15.11;100.00
44140;BME280;29803;51.048;4.686;2022-08-19T05:26:19;101440.47;;;15.11;100.00
44140;BME280;29803;51.048;4.686;2022-08-19T05:28:50;101446.53;;;15.13;100.00
44140;BME280;29803;51.048;4.686;2022-08-19T05:31:21;101447.69;;;15.18;100.00
44140;BME280;29803;51.048;4.686;2022-08-19T05:33:51;101441.53;;;15.24;100.00
44140;BME280;29803;51.048;4.686;2022-08-19T05:36:22;101438.09;;;15.31;100.00
44140;BME280;29803;51.048;4.686;2022-08-19T05:38:53;101442.69;;;15.45;100.00
44140;BME280;29803;51.048;4.686;2022-08-19T05:41:23;101440.97;;;15.52;100.00
44140;BME280;29803;51.048;4.686;2022-08-19T05:44:03;101440.84;;;15.60;100.00
44140;BME280;29803;51.048;4.686;2022-08-19T05:46:37;101444.84;;;15.72;100.00
44140;BME280;29803;51.048;4.686;2022-08-19T05:49:08;101444.84;;;15.87;100.00
44140;BME280;29803;51.048;4.686;2022-08-19T05:51:38;101442.78;;;16.04;100.00
44140;BME280;29803;51.048;4.686;2022-08-19T05:54:09;101443.78;;;16.18;100.00
44140;BME280;29803;51.048;4.686;2022-08-19T05:56:41;101443.47;;;16.42;100.00
44140;BME280;29803;51.048;4.686;2022-08-19T05:59:12;101433.44;;;16.94;100.00
44140;BME280;29803;51.048;4.686;2022-08-19T06:01:44;101433.50;;;17.56;100.00
44140;BME280;29803;51.048;4.686;2022-08-19T06:04:16;101435.91;;;18.01;100.00
44140;BME280;29803;51.048;4.686;2022-08-19T06:06:51;101439.03;;;18.46;100.00
44140;BME280;29803;51.048;4.686;2022-08-19T06:09:22;101437.72;;;18.89;100.00
44140;BME280;29803;51.048;4.686;2022-08-19T06:11:55;101444.84;;;19.37;100.00
44140;BME280;29803;51.048;4.686;2022-08-19T06:14:32;101447.31;;;19.98;100.00
44140;BME280;29803;51.048;4.686;2022-08-19T06:17:04;101438.53;;;19.89;100.00
44140;BME280;29803;51.048;4.686;2022-08-19T06:19:35;101439.63;;;19.75;100.00
44140;BME280;29803;51.048;4.686;2022-08-19T06:22:07;101433.34;;;19.55;100.00
44140;BME280;29803;51.048;4.686;2022-08-19T06:24:38;101431.84;;;19.52;100.00
44140;BME280;29803;51.048;4.686;2022-08-19T06:27:08;101430.63;;;19.61;100.00
44140;BME280;29803;51.048;4.686;2022-08-19T06:29:39;101431.22;;;19.57;100.00
44140;BME280;29803;51.048;4.686;2022-08-19T06:32:09;101432.91;;;19.71;100.00
44140;BME280;29803;51.048;4.686;2022-08-19T06:34:41;101437.03;;;20.00;100.00
44140;BME280;29803;51.048;4.686;2022-08-19T06:37:12;101429.88;;;20.12;100.00
44140;BME280;29803;51.048;4.686;2022-08-19T06:39:44;101424.63;;;20.11;100.00
44140;BME280;29803;51.048;4.686;2022-08-19T06:42:15;101431.38;;;20.08;100.00
44140;BME280;29803;51.048;4.686;2022-08-19T06:44:48;101430.75;;;20.00;100.00
44140;BME280;29803;51.048;4.686;2022-08-19T06:47:21;101436.47;;;19.78;100.00
44140;BME280;29803;51.048;4.686;2022-08-19T06:49:54;101439.19;;;19.78;100.00
44140;BME280;29803;51.048;4.686;2022-08-19T06:52:31;101442.56;;;19.74;100.00
44140;BME280;29803;51.048;4.686;2022-08-19T06:55:03;101446.50;;;19.78;100.00
44140;BME280;29803;51.048;4.686;2022-08-19T06:57:34;101441.28;;;19.76;100.00
44140;BME280;29803;51.048;4.686;2022-08-19T07:00:05;101440.03;;;19.72;100.00
44140;BME280;29803;51.048;4.686;2022-08-19T07:02:42;101444.44;;;19.73;100.00
44140;BME280;29803;51.048;4.686;2022-08-19T07:05:12;101448.00;;;19.54;100.00
44140;BME280;29803;51.048;4.686;2022-08-19T07:07:43;101444.44;;;19.53;100.00
44140;BME280;29803;51.048;4.686;2022-08-19T07:10:13;101453.03;;;19.44;100.00
44140;BME280;29803;51.048;4.686;2022-08-19T07:12:44;101456.34;;;19.32;100.00
44140;BME280;29803;51.048;4.686;2022-08-19T07:15:15;101463.69;;;19.32;100.00
44140;BME280;29803;51.048;4.686;2022-08-19T07:17:46;101465.38;;;19.39;100.00
44140;BME280;29803;51.048;4.686;2022-08-19T07:20:17;101463.06;;;19.43;100.00
44140;BME280;29803;51.048;4.686;2022-08-19T07:22:48;101459.06;;;19.52;100.00
44140;BME280;29803;51.048;4.686;2022-08-19T07:25:19;101457.84;;;19.68;100.00
44140;BME280;29803;51.048;4.686;2022-08-19T07:27:51;101462.22;;;19.89;100.00
44140;BME280;29803;51.048;4.686;2022-08-19T07:30:22;101460.44;;;20.21;100.00
44140;BME280;29803;51.048;4.686;2022-08-19T07:32:54;101466.88;;;20.40;100.00
44140;BME280;29803;51.048;4.686;2022-08-19T07:35:24;101461.38;;;20.53;100.00
44140;BME280;29803;51.048;4.686;2022-08-19T07:37:55;101456.41;;;20.82;100.00
44140;BME280;29803;51.048;4.686;2022-08-19T07:40:26;101451.06;;;21.25;100.00
44140;BME280;29803;51.048;4.686;2022-08-19T07:42:57;101454.75;;;21.62;100.00
44140;BME280;29803;51.048;4.686;2022-08-19T07:45:27;101461.59;;;22.08;100.00
44140;BME280;29803;51.048;4.686;2022-08-19T07:47:58;101465.66;;;22.72;100.00
44140;BME280;29803;51.048;4.686;2022-08-19T07:50:29;101466.00;;;23.24;100.00
44140;BME280;29803;51.048;4.686;2022-08-19T07:52:59;101469.81;;;23.47;100.00
44140;BME280;29803;51.048;4.686;2022-08-19T07:55:30;101462.91;;;23.56;100.00
44140;BME280;29803;51.048;4.686;2022-08-19T07:58:01;101461.56;;;23.23;100.00
44140;BME280;29803;51.048;4.686;2022-08-19T08:00:31;101468.94;;;23.23;100.00
44140;BME280;29803;51.048;4.686;2022-08-19T08:03:02;101462.44;;;23.47;100.00
44140;BME280;29803;51.048;4.686;2022-08-19T08:05:32;101446.75;;;23.90;100.00
44140;BME280;29803;51.048;4.686;2022-08-19T08:08:22;101455.41;;;23.98;100.00
44140;BME280;29803;51.048;4.686;2022-08-19T08:11:12;101464.72;;;23.74;100.00
44140;BME280;29803;51.048;4.686;2022-08-19T08:13:43;101470.88;;;23.46;100.00
44140;BME280;29803;51.048;4.686;2022-08-19T08:16:14;101476.50;;;22.97;100.00
44140;BME280;29803;51.048;4.686;2022-08-19T08:18:44;101481.28;;;22.54;100.00
44140;BME280;29803;51.048;4.686;2022-08-19T08:21:15;101480.38;;;22.41;100.00
44140;BME280;29803;51.048;4.686;2022-08-19T08:23:45;101487.84;;;22.16;100.00
44140;BME280;29803;51.048;4.686;2022-08-19T08:26:16;101489.94;;;21.95;100.00
44140;BME280;29803;51.048;4.686;2022-08-19T08:28:47;101477.06;;;21.78;100.00
44140;BME280;29803;51.048;4.686;2022-08-19T08:31:18;101482.00;;;21.69;100.00
44140;BME280;29803;51.048;4.686;2022-08-19T08:33:49;101496.53;;;21.63;100.00
44140;BME280;29803;51.048;4.686;2022-08-19T08:36:20;101487.34;;;21.57;100.00
44140;BME280;29803;51.048;4.686;2022-08-19T08:38:50;101485.22;;;21.84;100.00
44140;BME280;29803;51.048;4.686;2022-08-19T08:43:53;101500.50;;;22.65;100.00
44140;BME280;29803;51.048;4.686;2022-08-19T08:46:34;101498.88;;;22.76;100.00
44140;BME280;29803;51.048;4.686;2022-08-19T08:49:29;101505.91;;;23.02;100.00
44140;BME280;29803;51.048;4.686;2022-08-19T08:52:06;101500.84;;;22.69;100.00
44140;BME280;29803;51.048;4.686;2022-08-19T08:54:41;101491.53;;;22.58;100.00
44140;BME280;29803;51.048;4.686;2022-08-19T08:57:17;101487.69;;;22.29;100.00
44140;BME280;29803;51.048;4.686;2022-08-19T08:59:50;101494.00;;;22.11;100.00
44140;BME280;29803;51.048;4.686;2022-08-19T09:02:22;101490.53;;;21.97;100.00
44140;BME280;29803;51.048;4.686;2022-08-19T09:04:54;101494.03;;;22.05;100.00
44140;BME280;29803;51.048;4.686;2022-08-19T09:10:29;101484.00;;;21.80;100.00
44140;BME280;29803;51.048;4.686;2022-08-19T09:13:11;101486.97;;;21.97;100.00
44140;BME280;29803;51.048;4.686;2022-08-19T09:15:48;101493.00;;;21.81;100.00
44140;BME280;29803;51.048;4.686;2022-08-19T09:18:19;101489.28;;;21.75;100.00
44140;BME280;29803;51.048;4.686;2022-08-19T09:20:50;101495.13;;;21.79;100.00
44140;BME280;29803;51.048;4.686;2022-08-19T09:23:20;101497.13;;;21.90;100.00
44140;BME280;29803;51.048;4.686;2022-08-19T09:25:52;101503.88;;;21.87;100.00
44140;BME280;29803;51.048;4.686;2022-08-19T09:28:22;101506.91;;;21.79;100.00
44140;BME280;29803;51.048;4.686;2022-08-19T09:30:53;101510.34;;;21.68;100.00
44140;BME280;29803;51.048;4.686;2022-08-19T09:33:23;101513.31;;;21.66;100.00
44140;BME280;29803;51.048;4.686;2022-08-19T09:36:14;101510.34;;;21.68;100.00
44140;BME280;29803;51.048;4.686;2022-08-19T09:38:45;101502.47;;;21.78;100.00
44140;BME280;29803;51.048;4.686;2022-08-19T09:41:18;101496.41;;;21.76;100.00
44140;BME280;29803;51.048;4.686;2022-08-19T09:43:51;101497.56;;;21.87;100.00
44140;BME280;29803;51.048;4.686;2022-08-19T09:46:24;101495.81;;;21.92;100.00
44140;BME280;29803;51.048;4.686;2022-08-19T09:48:58;101503.66;;;22.07;100.00
44140;BME280;29803;51.048;4.686;2022-08-19T09:51:30;101502.34;;;22.16;100.00
44140;BME280;29803;51.048;4.686;2022-08-19T09:54:02;101499.75;;;22.21;100.00
44140;BME280;29803;51.048;4.686;2022-08-19T09:56:33;101502.66;;;22.27;100.00
44140;BME280;29803;51.048;4.686;2022-08-19T09:59:03;101509.00;;;22.39;100.00
44140;BME280;29803;51.048;4.686;2022-08-19T10:01:34;101512.50;;;22.46;100.00
44140;BME280;29803;51.048;4.686;2022-08-19T10:04:05;101510.84;;;22.45;100.00
44140;BME280;29803;51.048;4.686;2022-08-19T10:06:51;101510.50;;;22.53;100.00
44140;BME280;29803;51.048;4.686;2022-08-19T10:09:21;101507.34;;;22.56;100.00
44140;BME280;29803;51.048;4.686;2022-08-19T10:11:52;101508.16;;;22.57;100.00
44140;BME280;29803;51.048;4.686;2022-08-19T10:14:23;101504.53;;;22.44;100.00
44140;BME280;29803;51.048;4.686;2022-08-19T10:16:53;101500.34;;;22.42;100.00
44140;BME280;29803;51.048;4.686;2022-08-19T10:19:24;101494.44;;;22.45;100.00
44140;BME280;29803;51.048;4.686;2022-08-19T10:21:54;101506.94;;;22.53;100.00
44140;BME280;29803;51.048;4.686;2022-08-19T10:24:25;101497.75;;;22.65;100.00
44140;BME280;29803;51.048;4.686;2022-08-19T10:26:57;101497.09;;;22.82;100.00
44140;BME280;29803;51.048;4.686;2022-08-19T10:29:28;101499.31;;;22.91;100.00
44140;BME280;29803;51.048;4.686;2022-08-19T10:32:00;101501.38;;;23.08;100.00
44140;BME280;29803;51.048;4.686;2022-08-19T10:34:31;101499.16;;;23.16;100.00
44140;BME280;29803;51.048;4.686;2022-08-19T10:37:04;101495.53;;;23.04;100.00
44140;BME280;29803;51.048;4.686;2022-08-19T10:39:36;101498.91;;;23.18;100.00
44140;BME280;29803;51.048;4.686;2022-08-19T10:42:07;101494.06;;;23.32;100.00
44140;BME280;29803;51.048;4.686;2022-08-19T10:44:40;101484.53;;;23.34;100.00
44140;BME280;29803;51.048;4.686;2022-08-19T10:47:11;101484.31;;;23.36;100.00
44140;BME280;29803;51.048;4.686;2022-08-19T10:49:42;101481.72;;;23.52;100.00
44140;BME280;29803;51.048;4.686;2022-08-19T10:52:46;101472.88;;;23.39;100.00
44140;BME280;29803;51.048;4.686;2022-08-19T10:55:21;101488.97;;;23.47;100.00
44140;BME280;29803;51.048;4.686;2022-08-19T10:58:14;101485.41;;;23.35;100.00
44140;BME280;29803;51.048;4.686;2022-08-19T11:00:51;101480.97;;;23.34;100.00
44140;BME280;29803;51.048;4.686;2022-08-19T11:03:24;101486.72;;;23.56;100.00
44140;BME280;29803;51.048;4.686;2022-08-19T11:08:43;101480.09;;;23.87;100.00
44140;BME280;29803;51.048;4.686;2022-08-19T11:11:15;101481.88;;;23.93;100.00
44140;BME280;29803;51.048;4.686;2022-08-19T11:13:47;101481.63;;;23.83;100.00
44140;BME280;29803;51.048;4.686;2022-08-19T11:16:20;101480.91;;;23.87;100.00
44140;BME280;29803;51.048;4.686;2022-08-19T11:18:54;101486.16;;;23.89;100.00
44140;BME280;29803;51.048;4.686;2022-08-19T11:21:31;101487.22;;;23.99;100.00
44140;BME280;29803;51.048;4.686;2022-08-19T11:24:05;101485.88;;;24.14;100.00
44140;BME280;29803;51.048;4.686;2022-08-19T11:26:38;101486.28;;;23.94;100.00
44140;BME280;29803;51.048;4.686;2022-08-19T11:29:12;101490.94;;;23.82;100.00
44140;BME280;29803;51.048;4.686;2022-08-19T11:31:45;101488.78;;;23.72;100.00
44140;BME280;29803;51.048;4.686;2022-08-19T11:34:20;101490.06;;;23.58;100.00
44140;BME280;29803;51.048;4.686;2022-08-19T11:36:51;101487.69;;;23.61;100.00
44140;BME280;29803;51.048;4.686;2022-08-19T11:39:22;101482.47;;;23.60;100.00
44140;BME280;29803;51.048;4.686;2022-08-19T11:41:52;101488.63;;;23.55;100.00
44140;BME280;29803;51.048;4.686;2022-08-19T11:44:23;101481.59;;;23.47;100.00
44140;BME280;29803;51.048;4.686;2022-08-19T11:46:54;101482.88;;;23.33;100.00
44140;BME280;29803;51.048;4.686;2022-08-19T11:49:25;101485.03;;;23.19;100.00
44140;BME280;29803;51.048;4.686;2022-08-19T11:51:56;101476.66;;;23.14;100.00
44140;BME280;29803;51.048;4.686;2022-08-19T11:54:28;101483.59;;;23.29;100.00
44140;BME280;29803;51.048;4.686;2022-08-19T11:56:58;101481.56;;;23.24;100.00
44140;BME280;29803;51.048;4.686;2022-08-19T11:59:31;101489.31;;;23.39;100.00
44140;BME280;29803;51.048;4.686;2022-08-19T12:02:01;101490.28;;;23.44;100.00
44140;BME280;29803;51.048;4.686;2022-08-19T12:04:32;101486.50;;;23.57;100.00
44140;BME280;29803;51.048;4.686;2022-08-19T12:07:02;101488.31;;;23.75;100.00
44140;BME280;29803;51.048;4.686;2022-08-19T12:09:33;101481.97;;;23.98;100.00
44140;BME280;29803;51.048;4.686;2022-08-19T12:12:05;101479.72;;;24.07;100.00
44140;BME280;29803;51.048;4.686;2022-08-19T12:14:35;101482.16;;;24.32;100.00
44140;BME280;29803;51.048;4.686;2022-08-19T12:17:06;101480.03;;;24.45;100.00
44140;BME280;29803;51.048;4.686;2022-08-19T12:19:38;101478.22;;;24.51;100.00
44140;BME280;29803;51.048;4.686;2022-08-19T12:22:09;101474.97;;;24.54;100.00
44140;BME280;29803;51.048;4.686;2022-08-19T12:24:40;101480.03;;;24.74;100.00
44140;BME280;29803;51.048;4.686;2022-08-19T12:27:10;101479.47;;;24.89;100.00
44140;BME280;29803;51.048;4.686;2022-08-19T12:29:41;101474.81;;;25.18;100.00
44140;BME280;29803;51.048;4.686;2022-08-19T12:32:11;101481.06;;;25.47;100.00
44140;BME280;29803;51.048;4.686;2022-08-19T12:34:42;101484.16;;;25.50;100.00
44140;BME280;29803;51.048;4.686;2022-08-19T12:37:13;101488.47;;;25.29;100.00
44140;BME280;29803;51.048;4.686;2022-08-19T12:39:43;101487.88;;;25.27;100.00
44140;BME280;29803;51.048;4.686;2022-08-19T12:42:14;101481.31;;;25.28;100.00
44140;BME280;29803;51.048;4.686;2022-08-19T12:44:45;101461.47;;;25.60;100.00
44140;BME280;29803;51.048;4.686;2022-08-19T12:47:15;101466.19;;;25.76;100.00
44140;BME280;29803;51.048;4.686;2022-08-19T12:49:48;101467.63;;;26.01;100.00
44140;BME280;29803;51.048;4.686;2022-08-19T12:52:19;101467.84;;;25.77;100.00
44140;BME280;29803;51.048;4.686;2022-08-19T12:54:52;101459.44;;;25.50;100.00
44140;BME280;29803;51.048;4.686;2022-08-19T12:57:25;101464.31;;;25.15;100.00
44140;BME280;29803;51.048;4.686;2022-08-19T12:59:56;101452.28;;;25.16;100.00
44140;BME280;29803;51.048;4.686;2022-08-19T13:02:27;101448.78;;;25.20;100.00
44140;BME280;29803;51.048;4.686;2022-08-19T13:04:57;101448.53;;;25.39;100.00
44140;BME280;29803;51.048;4.686;2022-08-19T13:07:28;101442.84;;;25.62;100.00
44140;BME280;29803;51.048;4.686;2022-08-19T13:10:01;101442.09;;;25.83;100.00
44140;BME280;29803;51.048;4.686;2022-08-19T13:12:31;101437.75;;;26.09;100.00
44140;BME280;29803;51.048;4.686;2022-08-19T13:15:02;101442.66;;;26.29;100.00